Emerson, Arkansas
Current Conditions -  °F | °C
As of 10:01 PM on Friday 19 Dec 2014 (Local Time) from KELD Reporting Station
Overcast Overcast  
Wind Chill: 41°   Ceiling: 5000
Heat Index: 45°   Visibility: 10mi
Dew Point: 42°   Wind: 8mph
Humidity: 90%   Direction: 70°ENE
Pressure: 30.21"   Gusts: NA
Location:  33.1°N, 93.19°W
Report Text: KELD 200401Z AUTO 07007KT 10SM FEW011 SCT023 OVC050 07/06 A3021 RMK AO2 T00720056
Loading
Personal Weather Stations






























Interactive Weather Map New forecast layout! Learn more

10-Day Weather Forecast

Advertisements
Track Severe Weather on mobile